Time;durP1;ratioP1;P1;durP2;ratioP2;P2;SDS_P1;SDS_P2;PMS_P1;PMS_P2;Temp;Humidity;BMP_temperature;BMP_pressure;BME280_temperature;BME280_humidity;BME280_pressure;Samples;Min_cycle;Max_cycle;Signal;HPM_P1;HPM_P2
2021/10/07 00:02:15;;;;;;;162.07;12.90;;;8.00;99.90;;;;;;5080449;28;20081;-69
2021/10/07 00:04:41;;;;;;;6.60;6.00;;;8.00;99.90;;;;;;5081851;28;20028;-68
2021/10/07 00:07:07;;;;;;;6.95;6.30;;;8.00;99.90;;;;;;5110640;27;20039;-69
2021/10/07 00:09:33;;;;;;;9.82;8.00;;;7.90;99.90;;;;;;5078356;28;20052;-69
2021/10/07 00:11:59;;;;;;;9.07;8.18;;;7.90;99.90;;;;;;5079825;28;20033;-68
2021/10/07 00:14:25;;;;;;;8.88;8.13;;;8.00;99.90;;;;;;5077803;28;20487;-69
2021/10/07 00:16:50;;;;;;;9.57;8.55;;;8.10;99.90;;;;;;5081510;28;20037;-68
2021/10/07 00:19:16;;;;;;;7.28;6.55;;;8.10;99.90;;;;;;5081996;28;20089;-69
2021/10/07 00:21:42;;;;;;;6.15;5.65;;;8.10;99.90;;;;;;5078930;28;20029;-68
2021/10/07 00:24:08;;;;;;;6.45;5.85;;;8.00;99.90;;;;;;5079894;28;20085;-68
2021/10/07 00:26:47;;;;;;;6.53;5.93;;;8.00;99.90;;;;;;5076919;28;20109;-69
2021/10/07 00:31:51;;;;;;;7.25;6.55;;;7.90;99.90;;;;;;5083223;28;20125;-69
2021/10/07 00:40:10;;;;;;;4.43;4.03;;;8.00;99.90;;;;;;5056833;28;21623;-68
2021/10/07 00:42:36;;;;;;;5.03;4.63;;;8.00;99.90;;;;;;5078844;28;20774;-69
2021/10/07 00:45:02;;;;;;;5.97;4.68;;;8.00;99.90;;;;;;5079059;28;20648;-69
2021/10/07 00:47:28;;;;;;;4.90;4.50;;;8.00;99.90;;;;;;5081154;28;20071;-69
2021/10/07 00:49:54;;;;;;;7.88;5.07;;;8.00;99.90;;;;;;5081166;28;21182;-68
2021/10/07 00:52:20;;;;;;;5.97;5.18;;;8.00;99.90;;;;;;5107885;27;20044;-69
2021/10/07 00:54:50;;;;;;;5.05;4.65;;;8.00;99.90;;;;;;5078505;28;20059;-69
2021/10/07 00:57:19;;;;;;;4.18;3.78;;;8.00;99.90;;;;;;5077802;28;20032;-68
2021/10/07 00:59:49;;;;;;;3.03;2.63;;;7.90;99.90;;;;;;5076475;28;20455;-69
2021/10/07 01:02:16;;;;;;;1.85;1.67;;;7.80;99.90;;;;;;5080284;28;20040;-69
2021/10/07 01:04:42;;;;;;;3.33;2.55;;;7.70;99.90;;;;;;5078080;28;20036;-68
2021/10/07 01:07:09;;;;;;;3.63;3.33;;;7.70;99.90;;;;;;5078532;28;21484;-68
2021/10/07 01:09:35;;;;;;;3.75;3.42;;;7.70;99.90;;;;;;5078894;28;20325;-69
2021/10/07 01:12:03;;;;;;;4.97;4.40;;;7.70;99.90;;;;;;5079151;28;20089;-69
2021/10/07 01:14:34;;;;;;;4.30;3.90;;;7.70;99.90;;;;;;5076076;28;20123;-68
2021/10/07 01:17:00;;;;;;;6.60;4.38;;;7.70;99.90;;;;;;5080665;28;20044;-68
2021/10/07 01:19:27;;;;;;;4.95;3.97;;;7.70;99.90;;;;;;5078084;28;20059;-68
2021/10/07 01:21:53;;;;;;;6.25;5.63;;;7.60;99.90;;;;;;5078093;28;20131;-68
2021/10/07 01:24:19;;;;;;;12.30;7.32;;;7.60;99.90;;;;;;5081248;28;20727;-69
2021/10/07 01:26:44;;;;;;;7.93;5.85;;;7.50;99.90;;;;;;5081611;28;20032;-69
2021/10/07 01:29:10;;;;;;;8.88;6.85;;;7.60;99.90;;;;;;5078854;28;20046;-69
2021/10/07 01:31:35;;;;;;;7.45;6.68;;;7.50;99.90;;;;;;5079515;28;20032;-69
2021/10/07 01:34:01;;;;;;;7.70;7.00;;;7.50;99.90;;;;;;5080146;28;20031;-69
2021/10/07 01:36:27;;;;;;;8.70;7.28;;;7.50;99.90;;;;;;5079509;28;20058;-69
2021/10/07 01:38:52;;;;;;;5.57;5.07;;;7.50;99.90;;;;;;5080013;28;20046;-68
2021/10/07 01:41:18;;;;;;;6.05;5.20;;;7.40;99.90;;;;;;5077340;28;20109;-68
2021/10/07 01:43:44;;;;;;;6.68;5.70;;;7.50;99.90;;;;;;5076991;28;20083;-69
2021/10/07 01:46:10;;;;;;;5.85;5.35;;;7.50;99.90;;;;;;5079484;28;20119;-68
2021/10/07 01:48:36;;;;;;;10.02;4.63;;;7.50;99.90;;;;;;5079153;28;20119;-68
2021/10/07 01:51:01;;;;;;;5.82;3.85;;;7.50;99.90;;;;;;5082982;28;20051;-68
2021/10/07 01:53:27;;;;;;;5.15;4.75;;;7.50;99.90;;;;;;5080919;28;20042;-69
2021/10/07 01:55:53;;;;;;;7.90;4.53;;;7.50;99.90;;;;;;5080427;28;20490;-69
2021/10/07 01:58:19;;;;;;;5.30;4.90;;;7.40;99.90;;;;;;5076845;28;20036;-68
2021/10/07 02:00:45;;;;;;;5.85;4.72;;;7.40;99.90;;;;;;5079506;28;20056;-68
2021/10/07 02:03:10;;;;;;;5.35;4.53;;;7.40;99.90;;;;;;5078684;28;20048;-69
2021/10/07 02:05:36;;;;;;;8.85;5.93;;;7.40;99.90;;;;;;5080111;28;20051;-68
2021/10/07 02:08:01;;;;;;;35.72;4.38;;;7.40;99.90;;;;;;5080570;28;20198;-68
2021/10/07 02:10:27;;;;;;;4.88;4.38;;;7.20;99.90;;;;;;5081015;28;20063;-68
2021/10/07 02:12:52;;;;;;;4.35;4.00;;;7.20;99.90;;;;;;5081004;28;20040;-69
2021/10/07 02:15:18;;;;;;;4.90;4.50;;;6.80;99.90;;;;;;5082987;28;20044;-68
2021/10/07 02:17:44;;;;;;;5.97;5.40;;;7.10;99.90;;;;;;5082418;28;20094;-68
2021/10/07 02:20:11;;;;;;;5.35;4.78;;;7.10;99.90;;;;;;5064410;28;20055;-68
2021/10/07 02:22:38;;;;;;;6.75;5.13;;;7.20;99.90;;;;;;5084411;28;20027;-68
2021/10/07 02:25:05;;;;;;;4.50;4.10;;;7.20;99.90;;;;;;5082947;28;20127;-69
2021/10/07 02:27:31;;;;;;;4.32;4.03;;;7.20;99.90;;;;;;5081329;28;20130;-68
2021/10/07 02:29:57;;;;;;;31.13;5.57;;;7.30;99.90;;;;;;5083885;28;20075;-68
2021/10/07 02:32:23;;;;;;;5.82;5.22;;;7.30;99.90;;;;;;5090637;28;20051;-68
2021/10/07 02:34:48;;;;;;;12.35;5.65;;;7.40;99.90;;;;;;5090468;28;20035;-68
2021/10/07 02:37:14;;;;;;;87.65;7.80;;;7.40;99.90;;;;;;5089870;28;20050;-68
2021/10/07 02:39:40;;;;;;;14.60;6.25;;;7.40;99.90;;;;;;5090525;28;20127;-68
2021/10/07 02:42:05;;;;;;;144.32;8.93;;;7.40;99.90;;;;;;5089174;28;20052;-67
2021/10/07 02:44:32;;;;;;;15.00;6.38;;;7.40;99.90;;;;;;5090588;28;20044;-68
2021/10/07 02:46:57;;;;;;;79.03;6.90;;;7.30;99.90;;;;;;5088063;28;20475;-68
2021/10/07 02:49:23;;;;;;;212.80;12.05;;;7.30;99.90;;;;;;5090950;28;20093;-68
2021/10/07 02:51:49;;;;;;;99.55;6.40;;;7.30;99.90;;;;;;5090203;28;20066;-68
2021/10/07 02:54:14;;;;;;;251.05;11.30;;;7.20;99.90;;;;;;5088870;28;20555;-68
2021/10/07 02:56:40;;;;;;;116.57;7.97;;;7.10;99.90;;;;;;5089042;28;20040;-68
2021/10/07 02:59:06;;;;;;;114.57;7.80;;;7.00;99.90;;;;;;5089096;28;21534;-68
2021/10/07 03:01:31;;;;;;;104.88;8.23;;;7.00;99.90;;;;;;5068753;28;20040;-68
2021/10/07 03:03:57;;;;;;;104.75;9.60;;;6.90;99.90;;;;;;5088485;28;20641;-68
2021/10/07 03:06:22;;;;;;;36.40;6.75;;;6.90;99.90;;;;;;5085268;28;20168;-68
2021/10/07 03:08:48;;;;;;;11.18;6.75;;;6.90;99.90;;;;;;5085354;28;20047;-68
2021/10/07 03:11:14;;;;;;;6.45;5.30;;;7.00;99.90;;;;;;5090262;28;20058;-68
2021/10/07 03:13:40;;;;;;;8.35;6.13;;;6.90;99.90;;;;;;5087284;28;20503;-68
2021/10/07 03:16:06;;;;;;;27.35;7.40;;;6.90;99.90;;;;;;5088856;28;20055;-68
2021/10/07 03:18:31;;;;;;;41.47;5.97;;;6.90;99.90;;;;;;5084848;28;20094;-68
2021/10/07 03:20:57;;;;;;;35.97;6.38;;;6.90;99.90;;;;;;5082656;28;20032;-68
2021/10/07 03:23:23;;;;;;;10.73;5.45;;;6.80;99.90;;;;;;5085157;28;20092;-68
2021/10/07 03:25:48;;;;;;;54.10;9.63;;;6.80;99.90;;;;;;5085694;28;20054;-68
2021/10/07 03:28:14;;;;;;;58.65;8.82;;;6.80;99.90;;;;;;5084885;28;20044;-68
2021/10/07 03:30:40;;;;;;;72.85;9.75;;;6.80;99.90;;;;;;5084184;28;20036;-68
2021/10/07 03:33:07;;;;;;;31.65;8.43;;;6.80;99.90;;;;;;5081752;28;20043;-68
2021/10/07 03:35:34;;;;;;;90.82;10.38;;;6.80;99.90;;;;;;5084689;28;20047;-69
2021/10/07 03:38:00;;;;;;;66.47;8.07;;;6.80;99.90;;;;;;5118708;27;20058;-68
2021/10/07 03:40:26;;;;;;;41.25;8.20;;;6.80;99.90;;;;;;5083727;28;20161;-68
2021/10/07 03:42:51;;;;;;;63.70;8.40;;;6.80;99.90;;;;;;5081839;28;20075;-68
2021/10/07 03:45:17;;;;;;;73.03;9.27;;;6.80;99.90;;;;;;5089212;28;20037;-68
2021/10/07 03:47:43;;;;;;;64.15;9.38;;;6.80;99.90;;;;;;5083728;28;20032;-68
2021/10/07 03:50:09;;;;;;;106.13;10.55;;;6.90;99.90;;;;;;5084920;28;20071;-68
2021/10/07 03:52:35;;;;;;;51.00;9.35;;;6.90;99.90;;;;;;5080812;28;20048;-68
2021/10/07 03:55:00;;;;;;;54.10;9.63;;;6.90;99.90;;;;;;5085018;28;20040;-68
2021/10/07 03:57:26;;;;;;;63.58;10.10;;;6.90;99.90;;;;;;5080085;28;20040;-68
2021/10/07 03:59:52;;;;;;;103.00;10.57;;;7.00;99.90;;;;;;5081049;28;20036;-68
2021/10/07 04:02:18;;;;;;;21.20;8.98;;;7.00;99.90;;;;;;5084504;28;20046;-68
2021/10/07 04:04:44;;;;;;;138.65;11.52;;;7.10;99.90;;;;;;5083936;28;20036;-68
2021/10/07 04:07:10;;;;;;;115.00;11.30;;;7.10;99.90;;;;;;5082933;28;20032;-68
2021/10/07 04:09:35;;;;;;;265.05;16.30;;;7.10;99.90;;;;;;5081647;28;20051;-68
2021/10/07 04:12:02;;;;;;;93.22;11.68;;;7.10;99.90;;;;;;5085161;28;20044;-68
2021/10/07 04:14:27;;;;;;;137.70;14.05;;;7.10;99.90;;;;;;5086579;28;20101;-68
2021/10/07 04:16:53;;;;;;;257.75;18.13;;;7.20;99.90;;;;;;5069768;28;20052;-68
2021/10/07 04:19:19;;;;;;;189.02;16.60;;;7.20;99.90;;;;;;5083993;28;20032;-68
2021/10/07 04:21:46;;;;;;;212.70;19.92;;;7.20;99.90;;;;;;5088552;28;20038;-68
2021/10/07 04:24:11;;;;;;;228.82;19.27;;;7.30;99.90;;;;;;5087620;28;20036;-68
2021/10/07 04:26:37;;;;;;;216.20;21.17;;;7.40;99.90;;;;;;5088904;28;20111;-68
2021/10/07 04:29:03;;;;;;;315.02;28.63;;;7.40;99.90;;;;;;5087512;28;20039;-68
2021/10/07 04:31:29;;;;;;;210.63;22.50;;;7.50;99.90;;;;;;5115050;27;20044;-69
2021/10/07 04:33:55;;;;;;;205.00;20.20;;;7.50;99.90;;;;;;5081130;28;20138;-69
2021/10/07 04:36:21;;;;;;;192.65;20.88;;;7.50;99.90;;;;;;5110453;27;20054;-68
2021/10/07 04:38:46;;;;;;;198.40;23.90;;;7.50;99.90;;;;;;5084535;28;20036;-68
2021/10/07 04:41:12;;;;;;;195.93;24.38;;;7.50;99.90;;;;;;5117914;27;20036;-68
2021/10/07 04:43:38;;;;;;;120.97;19.40;;;7.50;99.90;;;;;;5084431;28;20032;-68
2021/10/07 04:46:04;;;;;;;243.85;24.23;;;7.50;99.90;;;;;;5082200;28;20490;-68
2021/10/07 04:48:30;;;;;;;108.18;19.02;;;7.50;99.90;;;;;;5082157;28;20032;-68
2021/10/07 04:50:56;;;;;;;160.20;20.98;;;7.60;99.90;;;;;;5080438;28;20481;-68
2021/10/07 04:53:22;;;;;;;255.98;25.52;;;7.60;99.90;;;;;;5085879;28;20123;-68
2021/10/07 04:55:50;;;;;;;134.77;16.05;;;7.50;99.90;;;;;;5085417;28;20028;-68
2021/10/07 04:58:17;;;;;;;103.40;14.02;;;7.50;99.90;;;;;;5112813;27;20037;-68
2021/10/07 05:00:42;;;;;;;80.68;16.17;;;7.40;99.90;;;;;;5089305;28;20077;-68
2021/10/07 05:03:09;;;;;;;98.05;16.83;;;7.40;99.90;;;;;;5086318;28;20070;-68
2021/10/07 05:05:37;;;;;;;66.43;14.60;;;7.40;99.90;;;;;;5088434;28;20031;-68
2021/10/07 05:08:03;;;;;;;75.07;14.43;;;7.40;99.90;;;;;;5090215;28;20445;-68
2021/10/07 05:10:28;;;;;;;75.65;14.80;;;7.30;99.90;;;;;;5091384;28;20040;-68
2021/10/07 05:12:54;;;;;;;69.82;15.93;;;7.30;99.90;;;;;;5086088;28;20048;-68
2021/10/07 05:15:21;;;;;;;59.40;14.70;;;7.40;99.90;;;;;;5083114;28;20671;-68
2021/10/07 05:17:48;;;;;;;73.05;13.82;;;7.30;99.90;;;;;;5083530;28;20258;-68
2021/10/07 05:20:14;;;;;;;73.93;13.88;;;7.30;99.90;;;;;;5082291;28;20050;-69
2021/10/07 05:22:39;;;;;;;71.85;15.50;;;7.40;99.90;;;;;;5080681;28;20040;-68
2021/10/07 05:25:05;;;;;;;95.22;16.35;;;7.40;99.90;;;;;;5109754;27;20051;-68
2021/10/07 05:27:31;;;;;;;69.32;15.85;;;7.40;99.90;;;;;;5082772;28;20047;-68
2021/10/07 05:29:57;;;;;;;52.55;14.85;;;7.40;99.90;;;;;;5109022;27;20093;-68
2021/10/07 05:32:23;;;;;;;145.38;16.58;;;7.50;99.90;;;;;;5080060;28;20036;-68
2021/10/07 05:34:49;;;;;;;145.35;16.20;;;7.40;99.90;;;;;;5078783;28;20528;-68
2021/10/07 05:37:14;;;;;;;126.25;15.30;;;7.40;99.90;;;;;;5076775;28;20056;-68
2021/10/07 05:39:40;;;;;;;117.70;15.75;;;7.40;99.90;;;;;;5077957;28;20040;-68
2021/10/07 05:42:06;;;;;;;100.90;14.77;;;7.40;99.90;;;;;;5077735;28;20094;-69
2021/10/07 05:44:32;;;;;;;112.10;14.05;;;7.40;99.90;;;;;;5079720;28;20040;-68
2021/10/07 05:46:57;;;;;;;60.15;12.43;;;7.50;99.90;;;;;;5110244;27;20057;-68
2021/10/07 05:49:25;;;;;;;66.43;12.60;;;7.50;99.90;;;;;;5078208;28;20127;-68
2021/10/07 05:51:51;;;;;;;82.03;11.98;;;7.50;99.90;;;;;;5078451;28;20952;-68
2021/10/07 05:54:17;;;;;;;95.30;14.05;;;7.50;99.90;;;;;;5075900;28;20040;-69
2021/10/07 05:56:43;;;;;;;184.75;15.38;;;7.60;99.90;;;;;;5078635;28;20040;-68
2021/10/07 05:59:08;;;;;;;47.60;13.00;;;7.60;99.90;;;;;;5080450;28;20043;-68
2021/10/07 06:01:34;;;;;;;147.90;14.82;;;7.60;99.90;;;;;;5076891;28;20127;-68
2021/10/07 06:04:00;;;;;;;131.45;14.98;;;7.70;99.90;;;;;;5075988;28;20107;-68
2021/10/07 06:06:25;;;;;;;147.70;13.85;;;7.70;99.90;;;;;;5074402;28;20063;-68
2021/10/07 06:08:51;;;;;;;177.82;14.55;;;7.70;99.90;;;;;;5076493;28;20060;-68
2021/10/07 06:11:16;;;;;;;390.00;17.58;;;7.80;99.90;;;;;;5106718;27;20044;-68
2021/10/07 06:13:45;;;;;;;73.03;10.13;;;7.70;99.90;;;;;;5105598;27;20071;-68
2021/10/07 06:16:11;;;;;;;138.05;12.52;;;7.80;99.90;;;;;;5076972;28;20037;-69
2021/10/07 06:18:36;;;;;;;149.70;13.23;;;7.80;99.90;;;;;;5078193;28;20035;-68
2021/10/07 06:21:03;;;;;;;73.70;10.02;;;7.80;99.90;;;;;;5076696;28;20036;-68
2021/10/07 06:23:29;;;;;;;165.10;11.65;;;7.80;99.90;;;;;;5075472;28;20044;-68
2021/10/07 06:25:55;;;;;;;192.88;12.38;;;7.80;99.90;;;;;;5096781;28;20123;-68
2021/10/07 06:28:20;;;;;;;135.45;10.25;;;7.80;99.90;;;;;;5079163;28;20127;-68
2021/10/07 06:30:47;;;;;;;164.75;12.07;;;7.80;99.90;;;;;;5077684;28;20089;-68
2021/10/07 06:33:12;;;;;;;225.18;13.43;;;7.80;99.90;;;;;;5077408;28;20165;-68
2021/10/07 06:35:38;;;;;;;144.93;10.82;;;7.80;99.90;;;;;;5074921;28;20690;-68
2021/10/07 06:38:05;;;;;;;132.88;11.60;;;7.80;99.90;;;;;;5078338;28;20101;-68
2021/10/07 06:40:31;;;;;;;176.35;12.05;;;7.90;99.90;;;;;;5077653;28;20123;-68
2021/10/07 06:42:57;;;;;;;220.90;12.32;;;8.00;99.90;;;;;;5072439;28;20043;-68
2021/10/07 06:45:25;;;;;;;41.92;8.20;;;8.00;99.90;;;;;;5076947;28;20047;-68
2021/10/07 06:47:51;;;;;;;79.28;8.35;;;8.00;99.90;;;;;;5074262;28;20040;-68
2021/10/07 06:50:17;;;;;;;153.73;12.05;;;8.10;99.90;;;;;;5077091;28;20540;-68
2021/10/07 06:52:42;;;;;;;269.63;12.57;;;8.10;99.90;;;;;;5076868;28;20169;-68
2021/10/07 06:55:10;;;;;;;67.82;7.72;;;8.10;99.90;;;;;;5082282;28;20127;-68
2021/10/07 06:57:39;;;;;;;107.70;9.18;;;8.00;99.90;;;;;;5081071;28;20036;-68
2021/10/07 07:00:07;;;;;;;97.57;9.23;;;8.10;99.90;;;;;;5081879;28;20040;-68
2021/10/07 07:02:44;;;;;;;227.48;11.10;;;8.10;99.90;;;;;;5080679;28;20603;-68
2021/10/07 07:05:10;;;;;;;289.83;12.35;;;8.20;99.90;;;;;;5080654;28;20040;-68
2021/10/07 07:07:35;;;;;;;128.18;7.43;;;8.10;99.90;;;;;;5111368;27;20344;-67
2021/10/07 07:10:02;;;;;;;182.27;9.05;;;8.10;99.90;;;;;;5083716;28;20065;-68
2021/10/07 07:12:28;;;;;;;243.65;11.07;;;8.00;99.90;;;;;;5114436;27;20134;-68
2021/10/07 07:14:54;;;;;;;204.65;10.25;;;7.90;99.90;;;;;;5082914;28;20197;-68
2021/10/07 07:17:20;;;;;;;269.70;10.93;;;8.00;99.90;;;;;;5076928;28;20040;-68
2021/10/07 07:19:48;;;;;;;167.48;9.65;;;8.10;99.90;;;;;;5077453;28;20048;-68
2021/10/07 07:22:15;;;;;;;291.63;11.52;;;8.00;99.90;;;;;;5081344;28;20083;-68
2021/10/07 07:24:41;;;;;;;208.73;8.80;;;8.10;99.90;;;;;;5077881;28;20041;-68
2021/10/07 07:27:07;;;;;;;135.38;7.55;;;8.10;99.90;;;;;;5079410;28;20697;-68
2021/10/07 07:29:33;;;;;;;95.25;7.03;;;8.10;99.90;;;;;;5080934;28;20117;-68
2021/10/07 07:31:59;;;;;;;102.53;6.32;;;8.20;99.90;;;;;;5081364;28;20692;-68
2021/10/07 07:34:27;;;;;;;194.80;9.88;;;8.20;99.90;;;;;;5079346;28;20160;-68
2021/10/07 07:36:52;;;;;;;186.38;7.82;;;8.30;99.90;;;;;;5081168;28;20036;-68
2021/10/07 07:39:18;;;;;;;171.48;8.90;;;8.30;99.90;;;;;;5082572;28;22483;-68
2021/10/07 07:41:44;;;;;;;146.32;9.05;;;8.20;99.90;;;;;;5080332;28;20076;-68
2021/10/07 07:44:10;;;;;;;127.25;7.75;;;8.20;99.90;;;;;;5082288;28;20104;-68
2021/10/07 07:46:35;;;;;;;155.55;9.60;;;8.20;99.90;;;;;;5078822;28;20043;-68
2021/10/07 07:49:01;;;;;;;74.70;7.00;;;8.20;99.90;;;;;;5081767;28;20471;-68
2021/10/07 07:51:28;;;;;;;113.43;8.10;;;8.20;99.90;;;;;;5079494;28;20048;-68
2021/10/07 07:53:53;;;;;;;212.02;12.18;;;8.30;99.90;;;;;;5081045;28;20093;-68
2021/10/07 07:56:19;;;;;;;151.13;7.95;;;8.30;99.90;;;;;;5079579;28;20056;-68
2021/10/07 07:58:45;;;;;;;113.07;8.80;;;8.30;99.90;;;;;;5079944;28;20043;-68
2021/10/07 08:01:11;;;;;;;57.35;6.32;;;8.40;99.90;;;;;;5074228;28;20040;-68
2021/10/07 08:03:37;;;;;;;120.53;7.35;;;8.50;99.90;;;;;;5080233;28;20040;-68
2021/10/07 08:06:03;;;;;;;88.80;6.88;;;8.60;99.90;;;;;;5083260;28;20032;-68
2021/10/07 08:08:29;;;;;;;103.85;8.02;;;8.70;99.90;;;;;;5079508;28;20035;-68
2021/10/07 08:10:55;;;;;;;193.73;9.27;;;8.70;99.90;;;;;;5079419;28;20047;-69
2021/10/07 08:13:21;;;;;;;148.32;7.80;;;8.80;99.90;;;;;;5079165;28;20059;-68
2021/10/07 08:15:48;;;;;;;128.20;8.20;;;8.70;99.90;;;;;;5082001;28;20093;-68
2021/10/07 08:18:15;;;;;;;170.27;9.57;;;8.80;99.90;;;;;;5079688;28;20051;-68
2021/10/07 08:20:41;;;;;;;150.57;8.48;;;8.80;99.90;;;;;;5082756;28;20973;-69
2021/10/07 08:23:10;;;;;;;140.85;8.45;;;8.90;99.90;;;;;;5078929;28;20113;-68
2021/10/07 08:25:36;;;;;;;100.25;7.15;;;8.90;99.90;;;;;;5081728;28;20043;-68
2021/10/07 08:28:02;;;;;;;156.25;8.65;;;8.90;99.90;;;;;;5079861;28;20420;-68
2021/10/07 08:30:27;;;;;;;153.40;8.75;;;9.00;99.90;;;;;;5110768;27;20044;-69
2021/10/07 08:32:53;;;;;;;149.10;8.27;;;9.10;99.90;;;;;;5079816;28;20488;-68
2021/10/07 08:35:18;;;;;;;167.95;10.27;;;9.00;99.90;;;;;;5078763;27;20042;-68
2021/10/07 08:37:45;;;;;;;176.20;11.00;;;9.10;99.90;;;;;;5077858;28;20039;-68
2021/10/07 08:40:12;;;;;;;225.25;11.63;;;9.20;99.90;;;;;;5078796;28;20535;-68
2021/10/07 08:42:40;;;;;;;213.80;11.60;;;9.30;99.90;;;;;;5111332;27;20040;-68
2021/10/07 08:45:07;;;;;;;122.53;9.05;;;9.30;99.90;;;;;;5077394;28;20090;-69
2021/10/07 08:47:40;;;;;;;213.07;11.23;;;9.50;99.90;;;;;;5109705;27;20073;-68
2021/10/07 08:50:08;;;;;;;167.93;9.90;;;9.50;99.90;;;;;;5076939;28;20040;-68
2021/10/07 08:52:34;;;;;;;76.50;8.63;;;9.50;99.90;;;;;;5080111;28;20109;-68
2021/10/07 08:55:00;;;;;;;160.07;9.60;;;9.60;99.90;;;;;;5080816;28;20050;-68
2021/10/07 08:57:26;;;;;;;48.95;8.60;;;9.70;99.90;;;;;;5079354;28;20036;-69
2021/10/07 08:59:52;;;;;;;138.30;9.27;;;9.80;99.90;;;;;;5080272;28;20063;-69
2021/10/07 09:02:27;;;;;;;104.38;8.48;;;9.80;99.90;;;;;;5077275;28;20051;-69
2021/10/07 09:04:53;;;;;;;97.63;9.35;;;9.90;99.90;;;;;;5078199;28;20040;-69
2021/10/07 09:07:18;;;;;;;66.63;8.07;;;9.90;99.90;;;;;;5080330;28;20120;-69
2021/10/07 09:09:44;;;;;;;39.85;8.02;;;9.90;99.90;;;;;;5074598;28;20051;-69
2021/10/07 09:12:14;;;;;;;145.82;10.07;;;10.10;99.90;;;;;;5075948;28;20100;-69
2021/10/07 09:14:43;;;;;;;211.40;12.02;;;10.10;99.90;;;;;;5078870;28;20044;-68
2021/10/07 09:17:11;;;;;;;70.63;9.55;;;10.20;99.90;;;;;;5079459;28;20047;-68
2021/10/07 09:19:41;;;;;;;120.65;11.25;;;10.20;99.90;;;;;;5078116;28;20043;-69
2021/10/07 09:22:16;;;;;;;51.40;8.98;;;10.30;99.90;;;;;;5078726;28;20105;-68
2021/10/07 09:24:46;;;;;;;185.00;10.70;;;10.20;99.90;;;;;;5074171;28;20040;-68
2021/10/07 09:27:19;;;;;;;154.18;11.10;;;10.20;99.90;;;;;;5080341;28;20051;-69
2021/10/07 09:29:56;;;;;;;134.65;10.32;;;10.10;99.90;;;;;;5075200;28;20490;-68
2021/10/07 09:32:24;;;;;;;90.53;10.30;;;10.10;99.90;;;;;;5074586;28;20048;-68
2021/10/07 09:34:51;;;;;;;135.57;10.77;;;10.10;99.90;;;;;;5112048;27;20711;-68
2021/10/07 09:37:35;;;;;;;39.00;9.15;;;10.20;99.90;;;;;;5110787;27;20073;-68
2021/10/07 09:40:05;;;;;;;135.60;12.13;;;10.30;99.90;;;;;;5075015;28;20540;-68
2021/10/07 09:42:39;;;;;;;140.35;11.23;;;10.30;99.90;;;;;;5077316;28;20044;-69
2021/10/07 09:45:23;;;;;;;75.68;9.38;;;10.10;99.90;;;;;;5078091;28;20085;-69
2021/10/07 09:48:01;;;;;;;57.90;9.57;;;10.20;99.90;;;;;;5078148;28;20123;-69
2021/10/07 09:50:39;;;;;;;61.30;9.52;;;10.20;99.90;;;;;;5079243;28;20487;-69
2021/10/07 09:53:08;;;;;;;114.95;10.88;;;10.30;99.90;;;;;;5077458;28;20074;-68
2021/10/07 09:55:38;;;;;;;98.63;12.20;;;10.40;99.90;;;;;;5095910;28;20047;-68
2021/10/07 09:58:18;;;;;;;51.25;9.20;;;10.50;99.90;;;;;;5075504;28;20110;-69
2021/10/07 10:00:52;;;;;;;66.20;10.85;;;10.50;99.90;;;;;;5078712;28;20044;-68
2021/10/07 10:03:18;;;;;;;77.68;10.75;;;10.60;99.90;;;;;;5075176;28;20605;-69
2021/10/07 10:05:46;;;;;;;23.00;9.57;;;10.50;99.90;;;;;;5074764;28;20036;-69
2021/10/07 10:08:14;;;;;;;109.22;12.30;;;10.60;99.90;;;;;;5078044;28;20111;-69
2021/10/07 10:10:43;;;;;;;16.67;9.82;;;10.60;99.90;;;;;;5076685;28;20052;-69
2021/10/07 10:13:10;;;;;;;25.17;10.63;;;10.70;99.90;;;;;;5074876;28;20048;-69
2021/10/07 10:15:37;;;;;;;26.73;9.95;;;10.80;99.90;;;;;;5075806;28;20860;-69
2021/10/07 10:18:14;;;;;;;23.58;10.60;;;10.90;99.90;;;;;;5078154;28;20090;-69
2021/10/07 10:20:52;;;;;;;54.88;11.00;;;10.90;99.90;;;;;;5074022;28;20047;-69
2021/10/07 10:23:21;;;;;;;64.47;12.88;;;10.90;99.90;;;;;;5076401;28;20698;-68
2021/10/07 10:26:11;;;;;;;18.25;12.00;;;10.90;99.90;;;;;;5076633;28;20064;-68
2021/10/07 10:29:01;;;;;;;36.55;13.07;;;10.80;99.90;;;;;;5103146;27;20056;-68
2021/10/07 10:31:31;;;;;;;31.98;12.40;;;10.90;99.90;;;;;;5079194;28;20058;-68
2021/10/07 10:34:09;;;;;;;21.25;11.60;;;10.90;99.90;;;;;;5079546;28;20672;-68
2021/10/07 10:36:39;;;;;;;23.05;11.40;;;11.00;99.90;;;;;;5083720;28;20055;-68
2021/10/07 10:39:06;;;;;;;22.67;13.25;;;11.10;99.90;;;;;;5080003;28;20043;-68
2021/10/07 10:41:57;;;;;;;39.03;12.88;;;11.20;99.90;;;;;;5079926;28;20064;-69
2021/10/07 10:44:33;;;;;;;38.80;13.00;;;11.20;99.90;;;;;;5110124;27;20043;-68
2021/10/07 10:46:59;;;;;;;27.55;12.90;;;11.20;99.90;;;;;;5080611;28;20120;-69
2021/10/07 10:49:36;;;;;;;34.63;12.63;;;11.30;99.90;;;;;;5079721;28;20393;-68
2021/10/07 10:52:14;;;;;;;33.90;12.73;;;11.30;99.90;;;;;;5081676;28;20044;-69
2021/10/07 10:54:44;;;;;;;36.92;14.48;;;11.20;99.90;;;;;;5078296;28;20459;-69
2021/10/07 10:57:23;;;;;;;18.40;11.75;;;11.20;99.90;;;;;;5113441;27;20074;-68
2021/10/07 11:00:07;;;;;;;27.20;12.60;;;11.30;99.90;;;;;;5083813;28;20036;-68
2021/10/07 11:02:34;;;;;;;44.63;14.90;;;11.20;99.90;;;;;;5082711;28;20036;-68
2021/10/07 11:05:11;;;;;;;27.65;13.73;;;11.20;99.90;;;;;;5066427;28;20036;-69
2021/10/07 11:07:37;;;;;;;26.50;13.95;;;11.20;99.90;;;;;;5095966;28;20068;-69
2021/10/07 11:10:15;;;;;;;39.20;15.77;;;11.20;99.90;;;;;;5079744;28;20072;-69
2021/10/07 11:12:49;;;;;;;34.67;15.27;;;11.20;99.90;;;;;;5082620;28;20063;-69
2021/10/07 11:15:15;;;;;;;32.38;15.57;;;11.20;99.90;;;;;;5080468;28;20059;-69
2021/10/07 11:17:43;;;;;;;27.13;14.15;;;11.30;99.90;;;;;;5112040;27;20044;-69
2021/10/07 11:20:13;;;;;;;20.70;14.68;;;11.40;99.90;;;;;;5112937;27;20049;-68
2021/10/07 11:22:38;;;;;;;22.58;15.18;;;11.50;99.90;;;;;;5077600;28;20048;-68
2021/10/07 11:25:05;;;;;;;22.13;13.90;;;11.50;99.90;;;;;;5080766;28;20040;-68
2021/10/07 11:27:37;;;;;;;23.05;13.65;;;11.60;99.90;;;;;;5078821;28;20577;-68
2021/10/07 11:30:07;;;;;;;23.90;13.98;;;11.60;99.90;;;;;;5109620;27;20040;-69
2021/10/07 11:32:33;;;;;;;20.88;14.27;;;11.80;99.90;;;;;;5079319;28;20157;-69
2021/10/07 11:35:11;;;;;;;20.17;14.35;;;11.80;99.90;;;;;;5083289;28;20067;-69
2021/10/07 11:38:13;;;;;;;22.58;15.23;;;11.80;99.90;;;;;;5113369;27;20063;-68
2021/10/07 11:40:53;;;;;;;22.10;15.38;;;11.90;99.90;;;;;;5074527;28;20063;-69
2021/10/07 11:43:22;;;;;;;21.77;14.93;;;11.90;99.90;;;;;;5078475;28;20064;-69
2021/10/07 11:45:50;;;;;;;22.90;15.23;;;12.00;99.90;;;;;;5083635;28;20032;-68
2021/10/07 11:48:16;;;;;;;21.75;15.40;;;12.00;99.90;;;;;;5081598;28;20051;-69
2021/10/07 11:50:51;;;;;;;20.23;14.15;;;12.10;99.90;;;;;;5077544;28;20048;-69
2021/10/07 11:53:36;;;;;;;29.98;15.23;;;12.10;99.90;;;;;;5080330;28;20033;-68
2021/10/07 11:56:08;;;;;;;17.77;14.75;;;12.00;99.90;;;;;;5080138;28;20044;-68
2021/10/07 11:58:34;;;;;;;21.60;15.93;;;12.00;99.90;;;;;;5076594;28;20119;-68
2021/10/07 12:01:00;;;;;;;22.80;15.95;;;11.90;99.90;;;;;;5075768;28;20128;-69
2021/10/07 12:03:31;;;;;;;24.88;16.75;;;12.00;99.90;;;;;;5076900;28;20039;-69
2021/10/07 12:06:04;;;;;;;21.05;15.85;;;11.90;99.90;;;;;;5083121;28;20039;-69
2021/10/07 12:08:32;;;;;;;22.45;15.75;;;12.00;99.90;;;;;;5080611;28;20093;-69
2021/10/07 12:11:03;;;;;;;22.90;16.85;;;12.10;99.90;;;;;;5076468;28;20048;-69
2021/10/07 12:13:51;;;;;;;27.33;17.75;;;12.20;99.90;;;;;;5077240;28;20517;-68
2021/10/07 12:16:21;;;;;;;28.30;18.35;;;12.10;99.90;;;;;;5080007;28;20486;-68
2021/10/07 12:19:18;;;;;;;24.35;17.75;;;12.10;99.90;;;;;;5079302;28;20036;-69
2021/10/07 12:21:51;;;;;;;27.50;18.92;;;12.10;99.90;;;;;;5080930;28;20139;-69
2021/10/07 12:24:23;;;;;;;28.02;19.90;;;12.10;99.90;;;;;;5079490;28;20099;-68
2021/10/07 12:26:57;;;;;;;26.73;20.35;;;12.10;99.90;;;;;;5080067;28;20026;-69
2021/10/07 12:29:31;;;;;;;26.17;18.67;;;12.10;99.90;;;;;;5080868;28;20048;-69
2021/10/07 12:32:11;;;;;;;28.08;19.73;;;12.00;99.90;;;;;;5079016;28;20040;-69
2021/10/07 12:34:44;;;;;;;30.90;20.08;;;12.10;99.90;;;;;;5076491;28;20040;-69
2021/10/07 12:37:15;;;;;;;32.78;20.95;;;12.00;99.90;;;;;;5079194;28;20040;-69
2021/10/07 12:39:41;;;;;;;31.55;20.35;;;12.00;99.90;;;;;;5079834;28;20037;-69
2021/10/07 12:42:07;;;;;;;34.03;21.67;;;12.00;99.90;;;;;;5080155;28;20043;-69
2021/10/07 12:44:36;;;;;;;34.30;20.52;;;12.00;99.90;;;;;;5078890;28;20039;-69
2021/10/07 12:47:07;;;;;;;34.50;21.42;;;12.00;99.90;;;;;;5083895;28;20053;-69
2021/10/07 12:49:40;;;;;;;29.27;20.35;;;12.00;99.90;;;;;;5079129;28;20044;-69